Time;durP1;ratioP1;P1;durP2;ratioP2;P2;SDS_P1;SDS_P2;PMS_P1;PMS_P2;Temp;Humidity;BMP_temperature;BMP_pressure;BME280_temperature;BME280_humidity;BME280_pressure;Samples;Min_cycle;Max_cycle;Signal;HPM_P1;HPM_P2
2022/06/05 00:01:46;;;;;;;8.30;2.80;;;;;;;19.42;73.34;100766.20;1855645;77;21067;-65
2022/06/05 00:04:21;;;;;;;10.55;3.25;;;;;;;19.38;73.37;100771.41;1836708;77;21172;-70
2022/06/05 00:07:05;;;;;;;13.65;2.87;;;;;;;19.36;73.40;100777.34;1855862;76;21030;-70
2022/06/05 00:09:51;;;;;;;6.28;2.77;;;;;;;19.34;73.45;100769.94;1787974;77;21119;-66
2022/06/05 00:12:23;;;;;;;29.32;14.30;;;;;;;19.27;74.27;100773.08;1868394;76;21042;-64
2022/06/05 00:14:51;;;;;;;14.83;6.22;;;;;;;19.17;74.48;100772.05;1873317;74;21033;-66
2022/06/05 00:17:22;;;;;;;12.45;3.58;;;;;;;19.16;74.57;100767.67;1864986;76;21010;-67
2022/06/05 00:19:53;;;;;;;13.70;7.35;;;;;;;19.17;74.84;100761.38;1858152;76;21165;-73
2022/06/05 00:22:22;;;;;;;31.02;17.40;;;;;;;19.16;74.85;100763.66;1857790;76;21508;-71
2022/06/05 00:24:51;;;;;;;20.95;11.65;;;;;;;19.16;74.78;100768.16;1861052;77;21014;-71
2022/06/05 00:27:25;;;;;;;19.73;7.85;;;;;;;19.11;75.20;100765.86;1861141;77;21054;-68
2022/06/05 00:30:12;;;;;;;22.60;9.63;;;;;;;19.10;75.24;100765.47;1858996;75;21046;-70
2022/06/05 00:32:46;;;;;;;19.77;10.23;;;;;;;19.08;75.25;100772.74;1860960;77;21022;-70
2022/06/05 00:35:18;;;;;;;19.98;8.75;;;;;;;19.07;75.13;100769.69;1860680;77;21512;-69
2022/06/05 00:37:49;;;;;;;12.58;6.53;;;;;;;19.06;74.98;100770.19;1854764;76;21121;-69
2022/06/05 00:40:35;;;;;;;14.47;4.87;;;;;;;19.05;74.79;100775.63;1853648;77;21051;-69
2022/06/05 00:43:07;;;;;;;16.52;6.87;;;;;;;19.02;75.13;100780.72;1846210;77;21556;-69
2022/06/05 00:45:39;;;;;;;12.63;4.75;;;;;;;18.98;75.12;100781.05;1844174;77;21218;-70
2022/06/05 00:48:09;;;;;;;9.58;3.98;;;;;;;18.93;74.89;100781.89;1844204;77;21125;-70
2022/06/05 00:50:40;;;;;;;17.65;4.92;;;;;;;18.84;74.88;100790.08;1844156;78;21125;-70
2022/06/05 00:53:10;;;;;;;12.82;4.40;;;;;;;18.76;75.14;100783.07;1842871;77;21430;-69
2022/06/05 00:55:47;;;;;;;11.45;4.33;;;;;;;18.70;75.71;100787.03;1842959;78;21559;-69
2022/06/05 00:58:17;;;;;;;13.08;4.10;;;;;;;18.65;75.94;100781.20;1844129;78;21067;-69
2022/06/05 01:00:49;;;;;;;8.73;4.00;;;;;;;18.64;75.93;100779.48;1844257;78;21157;-63
2022/06/05 01:03:18;;;;;;;12.15;3.70;;;;;;;18.61;75.98;100779.70;1843017;78;21036;-63
2022/06/05 01:05:47;;;;;;;11.22;3.70;;;;;;;18.58;75.82;100773.28;1844121;78;21583;-63
2022/06/05 01:08:17;;;;;;;10.15;3.25;;;;;;;18.56;76.05;100764.05;1843999;78;21121;-67
2022/06/05 01:10:57;;;;;;;10.40;3.67;;;;;;;18.55;76.52;100766.82;1844174;78;21118;-64
2022/06/05 01:13:41;;;;;;;18.50;4.55;;;;;;;18.57;76.63;100767.06;1844218;77;21055;-65
2022/06/05 01:16:18;;;;;;;11.97;5.40;;;;;;;18.56;76.75;100775.20;1843309;78;21098;-65
2022/06/05 01:19:02;;;;;;;17.52;5.55;;;;;;;18.55;77.01;100774.82;1843630;78;21047;-65
2022/06/05 01:21:34;;;;;;;;;;;;;;;18.58;77.56;100779.94;1846262;78;21153;-64
2022/06/05 01:24:11;;;;;;;11.50;5.22;;;;;;;18.63;77.34;100772.47;1844624;76;20150;-64
2022/06/05 01:26:45;;;;;;;18.65;6.83;;;;;;;18.68;77.26;100774.30;1843976;78;21118;-64
2022/06/05 01:29:26;;;;;;;16.45;6.10;;;;;;;18.72;76.96;100766.47;1843894;78;21063;-64
2022/06/05 01:31:58;;;;;;;16.40;6.25;;;;;;;18.76;76.77;100775.94;1844219;78;21496;-64
2022/06/05 01:34:35;;;;;;;13.88;6.72;;;;;;;18.78;77.08;100776.67;1844165;77;21489;-65
2022/06/05 01:37:22;;;;;;;11.57;5.70;;;;;;;18.82;77.30;100778.19;1842017;78;21141;-64
2022/06/05 01:40:08;;;;;;;13.45;5.70;;;;;;;18.82;77.52;100776.84;1844164;78;21091;-65
2022/06/05 01:42:40;;;;;;;16.93;5.97;;;;;;;18.80;77.69;100769.41;1831148;77;21602;-65
2022/06/05 01:45:17;;;;;;;19.95;5.17;;;;;;;18.77;77.75;100772.30;1809468;79;21497;-64
2022/06/05 01:47:48;;;;;;;13.32;5.05;;;;;;;18.77;77.74;100773.63;1809420;78;21074;-64
2022/06/05 01:50:20;;;;;;;13.08;5.78;;;;;;;18.76;77.41;100778.61;1807168;79;21512;-62
2022/06/05 01:52:54;;;;;;;13.10;5.40;;;;;;;18.75;77.39;100776.89;1811621;79;21485;-62
2022/06/05 01:55:26;;;;;;;16.57;6.08;;;;;;;18.71;77.74;100781.59;1818433;79;21531;-62
2022/06/05 01:57:57;;;;;;;13.43;5.40;;;;;;;18.72;78.04;100782.47;1818465;78;21437;-63
2022/06/05 02:00:26;;;;;;;12.05;5.53;;;;;;;18.75;77.98;100774.71;1818245;77;21508;-63
2022/06/05 02:03:03;;;;;;;14.75;5.25;;;;;;;18.77;77.92;100781.62;1818297;79;21112;-62
2022/06/05 02:05:38;;;;;;;12.20;4.25;;;;;;;18.78;78.05;100779.34;1835988;77;21036;-61
2022/06/05 02:08:15;;;;;;;18.67;5.70;;;;;;;18.79;77.79;100782.36;1833853;78;21074;-62
2022/06/05 02:10:47;;;;;;;15.68;5.67;;;;;;;18.79;77.53;100781.03;1833693;78;21125;-61
2022/06/05 02:13:15;;;;;;;14.83;5.70;;;;;;;18.80;77.38;100780.57;1834241;78;21019;-61
2022/06/05 02:15:44;;;;;;;19.52;7.85;;;;;;;18.79;77.35;100778.36;1818269;79;21019;-62
2022/06/05 02:18:14;;;;;;;23.95;7.65;;;;;;;18.83;77.50;100785.23;1818253;79;21046;-62
2022/06/05 02:20:44;;;;;;;16.57;6.50;;;;;;;18.87;77.67;100786.70;1818442;79;21425;-62
2022/06/05 02:23:15;;;;;;;16.20;5.25;;;;;;;18.89;78.14;100783.44;1818306;79;21054;-61
2022/06/05 02:25:44;;;;;;;12.43;5.42;;;;;;;18.92;78.20;100786.84;1818392;79;21066;-60
2022/06/05 02:28:16;;;;;;;16.07;6.30;;;;;;;18.97;78.18;100792.70;1818242;79;21057;-60
2022/06/05 02:30:53;;;;;;;14.25;5.50;;;;;;;19.02;78.12;100797.22;1818102;79;21568;-62
2022/06/05 02:33:34;;;;;;;12.40;5.92;;;;;;;19.07;78.18;100797.71;1818299;79;21485;-63
2022/06/05 02:36:06;;;;;;;11.40;4.78;;;;;;;19.13;78.22;100797.28;1818421;79;21120;-64
2022/06/05 02:39:10;;;;;;;17.57;5.62;;;;;;;19.18;78.20;100785.78;1818446;78;21026;-64
2022/06/05 02:41:48;;;;;;;11.48;5.20;;;;;;;19.25;78.17;100789.67;1818585;77;21124;-65
2022/06/05 02:44:32;;;;;;;26.10;6.70;;;;;;;19.34;77.94;100783.30;1807431;78;21106;-62
2022/06/05 02:47:13;;;;;;;16.12;5.75;;;;;;;19.44;77.88;100789.63;1835440;78;21079;-66
2022/06/05 02:49:51;;;;;;;15.38;6.85;;;;;;;19.54;77.74;100790.64;1826204;78;21086;-65
2022/06/05 02:52:22;;;;;;;12.63;6.80;;;;;;;19.65;77.61;100791.16;1818497;78;21195;-62
2022/06/05 02:54:59;;;;;;;24.05;8.70;;;;;;;19.77;77.58;100786.72;1818403;77;21538;-63
2022/06/05 02:57:28;;;;;;;17.52;8.25;;;;;;;19.88;77.45;100786.73;1818514;79;21144;-63
2022/06/05 02:59:56;;;;;;;19.35;7.78;;;;;;;20.00;77.31;100781.78;1818320;79;21054;-63
2022/06/05 03:05:11;;;;;;;15.60;8.40;;;;;;;20.22;77.11;100776.94;1807144;79;21160;-65
2022/06/05 03:07:40;;;;;;;14.90;7.20;;;;;;;20.38;77.05;100779.25;1818457;78;21065;-65
2022/06/05 03:10:10;;;;;;;13.55;5.12;;;;;;;20.53;76.96;100779.00;1818372;79;21194;-65
2022/06/05 03:12:39;;;;;;;12.00;4.62;;;;;;;20.61;76.57;100775.25;1818513;79;21018;-65
2022/06/05 03:15:08;;;;;;;15.30;6.10;;;;;;;20.69;76.29;100775.45;1818274;79;21042;-65
2022/06/05 03:17:37;;;;;;;14.23;5.55;;;;;;;20.78;76.09;100761.33;1818224;79;21187;-65
2022/06/05 03:20:07;;;;;;;10.68;6.33;;;;;;;20.93;76.06;100759.72;1818310;77;21050;-65
2022/06/05 03:22:36;;;;;;;18.95;6.45;;;;;;;21.06;75.97;100763.07;1818353;79;21121;-65
2022/06/05 03:25:06;;;;;;;14.98;7.33;;;;;;;21.21;75.88;100761.81;1818224;79;21124;-65
2022/06/05 03:27:34;;;;;;;16.70;9.38;;;;;;;21.35;75.79;100766.49;1818350;78;21022;-60
2022/06/05 03:30:03;;;;;;;19.52;13.08;;;;;;;21.48;75.66;100761.83;1818223;79;21077;-60
2022/06/05 03:32:32;;;;;;;16.02;10.32;;;;;;;21.61;75.24;100771.51;1818247;79;21124;-59
2022/06/05 03:35:01;;;;;;;15.95;9.80;;;;;;;21.65;74.65;100771.60;1818310;79;21066;-63
2022/06/05 03:37:29;;;;;;;13.05;9.58;;;;;;;21.72;74.44;100771.44;1818304;79;21054;-64
2022/06/05 03:39:58;;;;;;;20.82;8.70;;;;;;;21.79;74.15;100764.58;1818344;78;21120;-64
2022/06/05 03:42:27;;;;;;;13.18;7.00;;;;;;;21.93;74.06;100772.75;1818291;79;21488;-64
2022/06/05 03:44:56;;;;;;;29.37;11.80;;;;;;;22.10;74.00;100773.48;1832513;76;21173;-64
2022/06/05 03:47:24;;;;;;;15.40;5.67;;;;;;;22.28;73.84;100773.75;1838649;78;21138;-64
2022/06/05 03:49:53;;;;;;;16.80;5.40;;;;;;;22.45;73.52;100768.73;1838598;78;21129;-63
2022/06/05 03:52:22;;;;;;;11.55;5.25;;;;;;;22.58;73.01;100766.64;1838423;78;21572;-64
2022/06/05 03:54:50;;;;;;;12.73;5.90;;;;;;;22.69;72.51;100769.20;1838428;77;21031;-64
2022/06/05 03:57:19;;;;;;;12.00;4.90;;;;;;;22.84;72.37;100768.81;1838551;78;21095;-64
2022/06/05 03:59:48;;;;;;;13.25;5.25;;;;;;;23.03;72.15;100766.64;1817762;78;21031;-62
2022/06/05 04:02:17;;;;;;;11.28;5.55;;;;;;;23.23;71.87;100775.59;1838893;78;21552;-58
2022/06/05 04:04:45;;;;;;;38.42;14.28;;;;;;;23.42;71.52;100774.22;1838624;78;21027;-59
2022/06/05 04:07:14;;;;;;;14.40;7.37;;;;;;;23.64;71.17;100762.82;1838536;77;21055;-58
2022/06/05 04:09:42;;;;;;;19.52;8.50;;;;;;;23.88;70.65;100763.23;1838464;76;21494;-59
2022/06/05 04:12:11;;;;;;;29.10;10.13;;;;;;;24.15;70.17;100762.92;1838532;78;21184;-57
2022/06/05 04:14:40;;;;;;;22.37;9.05;;;;;;;24.44;69.66;100760.61;1838553;78;21055;-59
2022/06/05 04:17:08;;;;;;;20.82;7.37;;;;;;;24.72;68.94;100764.66;1838548;78;21031;-60
2022/06/05 04:19:37;;;;;;;18.67;7.83;;;;;;;24.94;68.15;100760.69;1838535;78;21129;-60
2022/06/05 04:22:05;;;;;;;16.57;6.42;;;;;;;25.10;66.93;100759.97;1838453;77;21121;-58
2022/06/05 04:24:34;;;;;;;13.75;7.08;;;;;;;25.26;66.05;100761.50;1838507;78;21553;-59
2022/06/05 04:27:03;;;;;;;14.45;6.47;;;;;;;25.42;65.54;100755.42;1838575;78;21067;-63
2022/06/05 04:29:33;;;;;;;12.15;5.83;;;;;;;25.74;65.35;100758.83;1838671;78;21059;-64
2022/06/05 04:32:01;;;;;;;11.35;5.65;;;;;;;26.01;64.85;100759.72;1838656;78;21133;-63
2022/06/05 04:34:30;;;;;;;16.35;5.92;;;;;;;26.31;64.53;100751.59;1838608;78;21035;-61
2022/06/05 04:36:59;;;;;;;11.68;5.45;;;;;;;26.54;63.35;100750.50;1838601;78;21505;-56
2022/06/05 04:39:27;;;;;;;11.70;4.85;;;;;;;26.73;62.62;100748.56;1838542;78;21129;-57
2022/06/05 04:41:57;;;;;;;13.43;5.35;;;;;;;26.85;61.47;100755.83;1838521;78;21059;-56
2022/06/05 04:44:26;;;;;;;14.65;5.20;;;;;;;26.84;60.37;100756.86;1838033;77;21561;-57
2022/06/05 04:46:54;;;;;;;12.75;4.97;;;;;;;26.98;60.32;100752.13;1838447;78;21063;-58
2022/06/05 04:49:23;;;;;;;9.43;4.12;;;;;;;27.23;60.28;100750.30;1838477;78;21619;-57
2022/06/05 04:51:51;;;;;;;13.00;5.53;;;;;;;27.47;59.67;100748.65;1838491;78;21095;-57
2022/06/05 04:54:20;;;;;;;9.88;4.80;;;;;;;27.54;57.76;100737.48;1838637;78;21121;-58
2022/06/05 04:56:49;;;;;;;14.33;4.80;;;;;;;27.55;57.11;100740.52;1838643;78;21498;-61
2022/06/05 04:59:17;;;;;;;11.25;4.75;;;;;;;27.69;57.54;100737.63;1838634;78;21059;-61
2022/06/05 05:01:46;;;;;;;8.10;4.53;;;;;;;27.95;57.43;100725.25;1838546;78;21055;-61
2022/06/05 05:04:16;;;;;;;10.58;4.92;;;;;;;28.24;57.16;100730.56;1838512;78;21055;-61
2022/06/05 05:06:45;;;;;;;9.38;4.17;;;;;;;28.47;56.48;100731.45;1838704;78;21482;-61
2022/06/05 05:09:14;;;;;;;9.30;4.40;;;;;;;28.77;56.60;100733.52;1838582;78;21542;-61
2022/06/05 05:11:43;;;;;;;10.60;4.50;;;;;;;28.97;55.71;100724.40;1838671;78;21137;-61
2022/06/05 05:14:12;;;;;;;8.88;4.40;;;;;;;29.05;54.98;100727.06;1838478;76;21082;-61
2022/06/05 05:16:41;;;;;;;8.55;4.17;;;;;;;29.30;55.11;100732.30;1838620;78;21656;-61
2022/06/05 05:19:11;;;;;;;12.30;3.67;;;;;;;29.60;54.55;100726.41;1838598;78;21023;-61
2022/06/05 05:21:40;;;;;;;9.08;3.42;;;;;;;29.74;53.60;100724.79;1838635;76;21458;-61
2022/06/05 05:24:09;;;;;;;11.33;4.25;;;;;;;29.97;53.62;100728.76;1838625;78;21469;-61
2022/06/05 05:26:38;;;;;;;7.45;3.70;;;;;;;30.27;53.55;100727.38;1838592;78;21204;-60
2022/06/05 05:29:07;;;;;;;12.40;3.15;;;;;;;30.66;53.13;100724.86;1838704;77;21142;-65
2022/06/05 05:31:39;;;;;;;6.03;3.27;;;;;;;30.97;52.95;100719.98;1838525;78;21067;-62
2022/06/05 05:34:10;;;;;;;13.35;3.60;;;;;;;31.31;52.58;100718.91;1838688;78;21117;-61
2022/06/05 05:36:39;;;;;;;5.65;3.27;;;;;;;31.50;51.88;100716.05;1838001;78;21059;-62
2022/06/05 05:42:05;;;;;;;9.78;2.72;;;;;;;32.13;51.18;100722.86;1823494;78;21030;-59
2022/06/05 05:44:46;;;;;;;13.22;3.50;;;;;;;32.44;50.20;100728.30;1838606;78;21023;-62
2022/06/05 05:47:17;;;;;;;10.98;3.55;;;;;;;32.65;49.53;100722.75;1825130;78;21539;-61
2022/06/05 05:49:46;;;;;;;13.25;3.22;;;;;;;32.84;49.06;100723.83;1837696;78;21513;-62
2022/06/05 05:52:15;;;;;;;11.50;3.70;;;;;;;33.22;47.94;100706.91;1850185;77;21062;-66
2022/06/05 05:54:43;;;;;;;12.93;3.95;;;;;;;33.22;47.94;100706.91;1850334;77;21137;-62
2022/06/05 05:57:12;;;;;;;9.10;3.20;;;;;;;33.55;47.17;100706.05;1839001;77;21224;-59
2022/06/05 05:59:41;;;;;;;9.68;2.83;;;;;;;33.77;46.73;100688.91;1838560;78;21545;-57
2022/06/05 06:02:16;;;;;;;11.75;2.90;;;;;;;33.82;45.82;100695.91;1838445;77;21154;-58
2022/06/05 06:04:44;;;;;;;5.70;2.60;;;;;;;33.75;45.72;100691.52;1838869;76;21124;-58
2022/06/05 06:07:13;;;;;;;9.80;2.70;;;;;;;34.01;45.48;100690.59;1838499;78;21070;-58
2022/06/05 06:09:42;;;;;;;7.00;2.77;;;;;;;34.25;44.35;100690.95;1838531;78;21642;-59
2022/06/05 06:12:12;;;;;;;10.10;3.17;;;;;;;34.35;43.85;100687.23;1838452;77;21552;-62
2022/06/05 06:14:41;;;;;;;10.82;2.83;;;;;;;34.59;43.67;100689.19;1838655;78;21338;-67
2022/06/05 06:17:10;;;;;;;13.50;2.92;;;;;;;34.80;42.87;100685.30;1838586;78;21120;-65
2022/06/05 06:19:39;;;;;;;4.92;2.50;;;;;;;34.91;42.58;100690.56;1838526;78;21047;-66
2022/06/05 06:22:07;;;;;;;10.60;2.65;;;;;;;35.18;42.25;100688.99;1831929;78;21197;-64
2022/06/05 06:24:36;;;;;;;13.10;2.60;;;;;;;35.40;42.08;100690.83;1867733;77;21087;-59
2022/06/05 06:27:06;;;;;;;7.20;2.77;;;;;;;35.56;41.23;100690.75;1870553;76;21039;-62
2022/06/05 06:29:35;;;;;;;9.58;3.15;;;;;;;35.59;40.68;100691.67;1854185;76;21035;-62
2022/06/05 06:32:11;;;;;;;9.95;2.55;;;;;;;35.70;40.41;100699.16;1874142;76;21079;-64
2022/06/05 06:34:41;;;;;;;6.97;2.50;;;;;;;35.89;40.20;100695.06;1864734;75;21466;-64
2022/06/05 06:37:10;;;;;;;9.43;2.40;;;;;;;36.04;40.12;100692.79;1874190;76;21039;-63
2022/06/05 06:39:38;;;;;;;8.90;2.90;;;;;;;36.15;39.70;100696.62;1867275;76;21039;-63
2022/06/05 06:42:07;;;;;;;8.55;3.00;;;;;;;36.29;39.59;100699.53;1838475;78;21055;-63
2022/06/05 06:44:36;;;;;;;8.93;3.10;;;;;;;36.53;39.28;100704.58;1838489;77;21506;-63
2022/06/05 06:47:05;;;;;;;7.58;2.90;;;;;;;36.76;38.75;100701.66;1825403;76;21152;-62
2022/06/05 06:49:35;;;;;;;7.87;3.27;;;;;;;36.83;38.63;100703.73;1818297;79;21124;-62
2022/06/05 06:52:05;;;;;;;10.32;3.10;;;;;;;36.89;38.25;100706.94;1818189;79;21026;-61
2022/06/05 06:54:33;;;;;;;8.88;2.75;;;;;;;36.99;38.11;100705.52;1818363;79;21058;-62
2022/06/05 06:57:02;;;;;;;10.63;3.45;;;;;;;36.71;37.55;100706.47;1829760;78;21093;-62
2022/06/05 06:59:31;;;;;;;8.65;2.70;;;;;;;36.78;37.63;100705.52;1825617;78;21046;-62
2022/06/05 07:01:59;;;;;;;14.05;2.62;;;;;;;36.89;37.25;100704.73;1818300;79;21027;-63
2022/06/05 07:04:28;;;;;;;6.72;2.58;;;;;;;37.01;36.99;100710.23;1818157;77;21610;-62
2022/06/05 07:06:57;;;;;;;6.67;2.62;;;;;;;36.93;36.01;100706.44;1818221;77;21145;-61
2022/06/05 07:09:25;;;;;;;5.53;2.33;;;;;;;37.04;36.05;100709.22;1818343;79;21046;-62
2022/06/05 07:11:55;;;;;;;6.70;2.02;;;;;;;37.01;35.02;100706.12;1818373;79;21058;-60
2022/06/05 07:14:25;;;;;;;8.48;2.85;;;;;;;37.01;35.12;100714.34;1818223;79;21128;-63
2022/06/05 07:16:55;;;;;;;12.60;3.70;;;;;;;37.10;35.04;100713.75;1818172;77;21050;-67
2022/06/05 07:19:24;;;;;;;12.95;3.40;;;;;;;37.38;34.91;100699.90;1818320;79;21185;-61
2022/06/05 07:21:53;;;;;;;10.03;3.00;;;;;;;37.42;34.43;100702.45;1818329;79;21112;-60
2022/06/05 07:24:21;;;;;;;4.67;2.58;;;;;;;37.44;34.14;100703.59;1818384;79;21108;-62
2022/06/05 07:26:50;;;;;;;7.10;2.83;;;;;;;37.52;34.40;100697.76;1818395;78;21023;-63
2022/06/05 07:29:18;;;;;;;6.17;2.12;;;;;;;37.72;34.36;100689.69;1818274;79;21120;-62
2022/06/05 07:31:47;;;;;;;7.37;2.70;;;;;;;37.82;34.29;100694.05;1818177;79;21085;-64
2022/06/05 07:34:16;;;;;;;10.10;2.75;;;;;;;38.00;33.98;100691.13;1818285;79;21014;-61
2022/06/05 07:36:44;;;;;;;12.03;4.75;;;;;;;38.09;33.70;100689.39;1818408;79;21086;-62
2022/06/05 07:39:13;;;;;;;9.30;2.67;;;;;;;38.16;33.54;100699.70;1818460;79;21110;-62
2022/06/05 07:41:42;;;;;;;6.95;2.65;;;;;;;38.16;32.98;100692.83;1818424;79;21124;-62
2022/06/05 07:44:11;;;;;;;13.45;3.92;;;;;;;37.99;32.45;100692.74;1818290;79;21191;-62
2022/06/05 07:46:39;;;;;;;8.98;2.30;;;;;;;38.02;32.76;100693.09;1823145;76;21074;-62
2022/06/05 07:49:08;;;;;;;10.53;3.02;;;;;;;38.13;32.95;100690.59;1818281;78;21046;-63
2022/06/05 07:54:37;;;;;;;17.48;2.62;;;;;;;38.10;32.71;100693.82;1856677;76;21539;-63
2022/06/05 07:57:12;;;;;;;14.38;2.70;;;;;;;38.32;32.77;100694.80;1852288;77;21170;-67
2022/06/05 07:59:46;;;;;;;9.38;2.65;;;;;;;38.47;32.55;100696.19;1884423;76;21465;-64
2022/06/05 08:02:18;;;;;;;9.70;3.00;;;;;;;38.59;32.46;100696.45;1886089;76;21023;-61
2022/06/05 08:04:48;;;;;;;11.40;2.67;;;;;;;38.78;32.41;100691.55;1881830;76;21042;-61
2022/06/05 08:07:20;;;;;;;8.53;2.50;;;;;;;38.92;32.10;100686.56;1852999;77;21047;-64
2022/06/05 08:09:52;;;;;;;11.57;2.33;;;;;;;39.02;32.04;100692.80;1834953;77;21050;-63
2022/06/05 08:12:22;;;;;;;13.72;2.33;;;;;;;38.99;31.94;100693.26;1818491;79;21054;-62
2022/06/05 08:14:52;;;;;;;13.72;2.95;;;;;;;39.14;31.55;100691.33;1818360;79;21026;-63
2022/06/05 08:17:24;;;;;;;12.13;2.65;;;;;;;39.15;31.31;100693.83;1841559;76;21128;-68
2022/06/05 08:19:52;;;;;;;;;;;;;;;39.22;31.30;100694.22;1815229;78;21125;-63
2022/06/05 08:22:22;;;;;;;13.93;3.77;;;;;;;39.45;31.54;100686.28;1812629;79;20121;-64
2022/06/05 08:24:56;;;;;;;12.60;2.40;;;;;;;39.64;31.21;100685.47;1812615;78;21031;-62
2022/06/05 08:27:25;;;;;;;33.00;19.12;;;;;;;39.66;31.09;100684.70;1811519;78;21513;-63
2022/06/05 08:30:00;;;;;;;10.75;3.98;;;;;;;39.62;31.16;100679.38;1812553;79;21098;-64
2022/06/05 08:32:28;;;;;;;10.48;3.35;;;;;;;39.56;30.91;100676.58;1811505;79;21035;-63
2022/06/05 08:34:57;;;;;;;8.48;2.75;;;;;;;39.40;30.88;100671.91;1803630;79;21125;-63
2022/06/05 08:43:24;;;;;;;9.70;3.25;;;;;;;39.24;31.13;100676.91;1792967;80;21055;-64
2022/06/05 08:46:04;;;;;;;8.93;2.92;;;;;;;39.29;31.16;100672.83;1813158;77;21560;-64
2022/06/05 08:48:38;;;;;;;5.30;2.58;;;;;;;39.46;31.06;100671.47;1810812;77;21150;-64
2022/06/05 08:51:25;;;;;;;10.30;3.08;;;;;;;39.44;30.84;100668.94;1832999;77;21497;-65
2022/06/05 08:54:05;;;;;;;11.55;3.22;;;;;;;39.35;30.90;100667.70;1776898;79;21058;-64
2022/06/05 08:56:37;;;;;;;10.15;3.65;;;;;;;39.17;31.00;100664.13;1817523;76;21469;-63
2022/06/05 08:59:14;;;;;;;10.80;3.47;;;;;;;39.02;31.29;100671.33;1882593;76;21051;-65
2022/06/05 09:02:01;;;;;;;9.88;3.65;;;;;;;38.98;31.66;100666.28;1869706;76;21574;-67
2022/06/05 09:04:33;;;;;;;9.90;2.80;;;;;;;39.10;31.74;100662.08;1852502;76;21112;-64
2022/06/05 09:07:04;;;;;;;15.72;3.40;;;;;;;39.22;31.67;100662.55;1878005;76;21047;-64
2022/06/05 09:09:41;;;;;;;11.78;3.72;;;;;;;39.43;31.35;100663.67;1866627;75;21617;-63
2022/06/05 09:12:18;;;;;;;10.30;3.02;;;;;;;39.56;31.19;100660.57;1839877;77;21192;-64
2022/06/05 09:14:59;;;;;;;10.68;2.83;;;;;;;39.65;30.78;100660.42;1843696;78;21608;-64
2022/06/05 09:17:28;;;;;;;16.93;2.95;;;;;;;39.75;30.68;100656.43;1843737;77;21066;-64
2022/06/05 09:19:58;;;;;;;11.53;3.20;;;;;;;39.76;30.51;100654.50;1843680;78;21059;-64
2022/06/05 09:22:39;;;;;;;10.20;3.40;;;;;;;39.83;30.60;100652.38;1843782;78;21579;-63
2022/06/05 09:25:12;;;;;;;12.10;2.60;;;;;;;39.91;30.55;100645.61;1843658;77;21591;-62
2022/06/05 09:28:03;;;;;;;16.55;2.92;;;;;;;39.95;30.12;100644.85;1843924;77;21050;-63
2022/06/05 09:30:34;;;;;;;9.53;3.45;;;;;;;39.95;29.96;100644.00;1843938;78;21442;-64
2022/06/05 09:33:21;;;;;;;6.53;1.87;;;;;;;39.89;30.03;100652.72;1844060;77;21593;-62
2022/06/05 09:35:55;;;;;;;9.53;2.62;;;;;;;39.68;29.74;100648.07;1843842;78;21117;-62
2022/06/05 09:38:33;;;;;;;7.97;2.98;;;;;;;39.47;29.96;100642.30;1843800;77;21498;-62
2022/06/05 09:41:13;;;;;;;6.80;2.42;;;;;;;39.53;30.28;100646.78;1843815;77;21098;-62
2022/06/05 09:44:06;;;;;;;15.38;4.20;;;;;;;39.49;30.52;100640.13;1843971;77;21051;-63
2022/06/05 09:46:41;;;;;;;9.00;2.98;;;;;;;39.23;30.68;100643.55;1843658;76;21125;-63
2022/06/05 09:49:13;;;;;;;11.25;3.40;;;;;;;39.16;30.90;100644.58;1830940;76;21099;-63
2022/06/05 09:51:44;;;;;;;6.15;2.47;;;;;;;39.16;30.90;100644.58;1842874;77;21063;-62
2022/06/05 09:54:18;;;;;;;8.78;2.70;;;;;;;39.16;30.83;100639.07;1843962;77;21047;-62
2022/06/05 10:00:08;;;;;;;14.53;3.85;;;;;;;39.03;30.75;100639.43;1843853;78;21027;-63
2022/06/05 10:02:38;;;;;;;8.90;2.05;;;;;;;38.88;31.04;100635.01;1842833;77;21490;-64
2022/06/05 10:05:17;;;;;;;11.97;2.83;;;;;;;38.72;30.87;100631.20;1843989;78;21573;-61
2022/06/05 10:07:52;;;;;;;21.15;3.20;;;;;;;38.54;30.37;100631.67;1842093;77;21062;-62
2022/06/05 10:10:27;;;;;;;6.72;1.65;;;;;;;38.40;29.94;100628.42;1810799;79;21038;-61
2022/06/05 10:12:58;;;;;;;16.02;3.10;;;;;;;38.17;29.52;100636.78;1840071;78;21047;-61
2022/06/05 10:15:33;;;;;;;14.55;2.95;;;;;;;38.09;30.03;100634.41;1843758;77;21569;-62
2022/06/05 10:18:13;;;;;;;10.38;1.80;;;;;;;37.86;30.47;100638.89;1844130;77;21031;-64
2022/06/05 10:20:49;;;;;;;5.67;1.87;;;;;;;37.67;30.17;100634.12;1843747;77;21525;-64
2022/06/05 10:23:21;;;;;;;6.55;2.95;;;;;;;37.58;30.50;100629.50;1844047;78;21113;-63
2022/06/05 10:25:55;;;;;;;10.93;2.27;;;;;;;37.48;30.96;100626.55;1843281;78;21059;-62
2022/06/05 10:28:27;;;;;;;5.35;1.85;;;;;;;37.56;30.68;100623.41;1810191;79;21066;-62
2022/06/05 10:31:04;;;;;;;10.18;2.37;;;;;;;37.44;30.66;100622.59;1838320;78;21149;-62
2022/06/05 10:33:42;;;;;;;8.45;2.10;;;;;;;37.46;30.58;100623.18;1843994;77;21559;-62
2022/06/05 10:36:23;;;;;;;5.60;1.70;;;;;;;37.40;30.26;100616.75;1843773;77;21079;-62
2022/06/05 10:39:12;;;;;;;16.62;2.50;;;;;;;37.40;30.18;100625.53;1843925;78;21047;-62
2022/06/05 10:41:56;;;;;;;13.60;2.10;;;;;;;37.28;30.33;100619.52;1810904;79;21121;-61
2022/06/05 10:44:30;;;;;;;9.30;2.37;;;;;;;37.17;30.44;100609.38;1829425;78;21102;-61
2022/06/05 10:47:20;;;;;;;7.67;2.95;;;;;;;37.07;30.76;100615.97;1843382;77;21607;-62
2022/06/05 10:50:10;;;;;;;14.35;3.08;;;;;;;36.66;31.63;100609.47;1824888;76;21090;-62
2022/06/05 10:52:58;;;;;;;13.55;3.45;;;;;;;36.28;31.76;100612.05;1829769;77;21127;-62
2022/06/05 10:56:00;;;;;;;8.55;2.72;;;;;;;35.90;32.21;100619.50;1819061;78;21117;-63
2022/06/05 11:01:38;;;;;;;9.33;2.83;;;;;;;34.97;33.11;100611.73;1771112;79;21499;-63
2022/06/05 11:04:19;;;;;;;11.12;2.92;;;;;;;34.74;33.19;100605.50;1818192;78;21120;-64
2022/06/05 11:07:06;;;;;;;9.03;2.52;;;;;;;34.76;33.47;100612.95;1818786;77;21050;-63
2022/06/05 11:09:49;;;;;;;11.40;2.70;;;;;;;34.81;33.46;100613.66;1818331;79;21046;-63
2022/06/05 11:15:18;;;;;;;12.98;4.53;;;;;;;34.61;34.06;100605.05;1827418;78;21034;-62
2022/06/05 11:18:05;;;;;;;11.33;2.70;;;;;;;34.54;34.32;100622.02;1818565;79;21163;-63
2022/06/05 11:20:36;;;;;;;12.13;2.77;;;;;;;34.58;34.51;100624.64;1818351;79;21531;-63
2022/06/05 11:23:20;;;;;;;7.67;2.52;;;;;;;34.55;34.67;100629.72;1818157;79;21113;-63
2022/06/05 11:26:00;;;;;;;6.67;2.30;;;;;;;34.53;34.69;100623.09;1818224;79;21489;-63
2022/06/05 11:28:43;;;;;;;9.38;2.55;;;;;;;34.54;34.79;100626.66;1818682;77;21132;-63
2022/06/05 11:31:33;;;;;;;9.85;2.10;;;;;;;34.40;35.19;100623.20;1835480;77;21047;-63
2022/06/05 11:34:26;;;;;;;10.78;2.33;;;;;;;34.40;35.19;100623.20;1835651;78;21055;-63
2022/06/05 11:36:57;;;;;;;13.78;2.80;;;;;;;34.46;35.08;100631.88;1834604;78;21528;-63
2022/06/05 11:39:34;;;;;;;10.73;3.17;;;;;;;34.39;35.38;100628.34;1833774;78;21473;-63
2022/06/05 11:42:24;;;;;;;12.70;3.00;;;;;;;34.32;35.55;100623.44;1835430;78;21525;-62
2022/06/05 11:45:12;;;;;;;11.33;2.22;;;;;;;34.19;35.53;100619.72;1834216;78;21047;-64
2022/06/05 11:47:58;;;;;;;8.50;2.50;;;;;;;34.20;35.53;100622.77;1818190;79;21031;-63
2022/06/05 11:50:30;;;;;;;12.50;2.42;;;;;;;34.08;35.63;100622.28;1835969;77;21569;-62
2022/06/05 11:53:24;;;;;;;7.85;2.45;;;;;;;33.79;35.61;100621.27;1819962;78;21050;-63
2022/06/05 11:56:01;;;;;;;34.25;3.87;;;;;;;33.74;35.64;100616.97;1818194;78;21492;-62
2022/06/05 11:58:36;;;;;;;11.22;3.37;;;;;;;33.73;35.57;100615.28;1818219;78;21042;-63
2022/06/05 12:01:16;;;;;;;8.08;2.42;;;;;;;33.73;35.57;100615.28;1799918;79;21622;-62
2022/06/05 12:04:10;;;;;;;8.90;1.98;;;;;;;33.68;36.17;100601.47;1818369;78;21090;-62
2022/06/05 12:06:44;;;;;;;11.20;2.47;;;;;;;33.68;36.17;100601.47;1836184;77;21059;-62
2022/06/05 12:09:16;;;;;;;4.28;2.22;;;;;;;33.62;35.99;100609.10;1835379;78;21060;-62
2022/06/05 12:11:50;;;;;;;10.17;3.47;;;;;;;33.62;35.99;100609.10;1835819;76;21180;-62